Terminal Aerodrome Forecast
Issued by NWS

Current Version | Previous Version | Graphics & Text | Print | Product List | Glossary On
Versions: 1 2 3 4 5 6 7 8 9 10 11 12 13 14 15 16
000
FTUS41 KRNK 221720
TAFLWB
TAF
KLWB 221720Z 2218/2318 29009KT P6SM -SHRA VCTS SCT020 BKN035CB
      TEMPO 2218/2221 2SM TSRA BR OVC030CB
     FM222300 00000KT P6SM BKN050
     FM230400 00000KT 4SM BR SCT003 BKN100
     FM230700 00000KT 1/4SM FG OVC001
     FM231430 28004KT P6SM BKN025=

USA.gov is the U.S. government's official web portal to all federal, state and local government web resources and services.